METAR stanice u blizini

 

LYBE - Beograd / Surčin, Srbija
Ažurirano: 28/09/2020 12:30
Few Clouds
Few Clouds
 Pravac vetra JI
Vetar: JI 31 km/h
Temperatura: 21°C
Tačka rose: 12°C
Vlažnost: 57%
Pritisak: 1008 hPa
Oblaci: Few Clouds
Vidljivost: 10 km
Cloud details: Few Clouds 1006 m
2020/09/28 10:30 LYBE 281030Z 13017KT 9999 FEW033 21/12 Q1008 NOSIG
LYBT - Beograd / Batajnica, Srbija
Ažurirano: 28/09/2020 12:30
Few Clouds
Few Clouds
 Pravac vetra I
Vetar: I 26 km/h
Temperatura: 22°C
Tačka rose: 12°C
Vlažnost: 53%
Pritisak: 1007 hPa
Oblaci: Few Clouds
Vidljivost: 10 km
Cloud details: Few Clouds 1006 m
2020/09/28 10:30 LYBT 281030Z 09014KT 9999 FEW033 22/12 Q1007 NOSIG
LYVR - Vršac, Srbija
Ažurirano: 28/09/2020 12:30
Vedro
Vedro
 Pravac vetra JI
Vetar: JI 46 km/h, Maks.: 89 km/h
Temperatura: 19°C
Tačka rose: 10°C
Vlažnost: 56%
Pritisak: 1009 hPa
Pregled: Vedro
Vidljivost: greater than 10 km
2020/09/28 10:30 LYVR 281030Z 14025G48KT CAVOK 19/10 Q1009
 
LYKV - Lađevci, Srbija
Ažurirano: 28/09/2020 12:30
Partly Cloudy
Partly Cloudy
 Pravac vetra JJI
Vetar: JJI 24 km/h
Temperatura: 21°C
Tačka rose: 13°C
Vlažnost: 60%
Pritisak: 1009 hPa
Oblaci: Partly Cloudy
Vidljivost: 10 km
Cloud details: Few Clouds 1006 m
Partly Cloudy 1524 m
2020/09/28 10:30 LYKV 281030Z 15013KT 9999 FEW033 SCT050 21/13 Q1009 NOSIG
LYNI - Niš, Srbija
Ažurirano: 28/09/2020 12:30
Mostly Cloudy
Mostly Cloudy
 Pravac vetra JJZ
Vetar: JJZ 15 km/h
Temperatura: 23°C
Tačka rose: 11°C
Vlažnost: 47%
Pritisak: 1011 hPa
Oblaci: Mostly Cloudy
Vidljivost: 10 km
Cloud details: Mostly Cloudy 1219 m
2020/09/28 10:30 LYNI 281030Z 20008KT 120V260 9999 BKN040 23/11 Q1011 TEMPO SHRA FEW033TCU BKN040
BKPR - Priština, Srbija
Ažurirano: 28/09/2020 13:00
Mostly Cloudy
Mostly Cloudy
 Pravac vetra JZ
Vetar: JZ 26 km/h
Temperatura: 19°C
Tačka rose: 10°C
Vlažnost: 56%
Pritisak: 1013 hPa
Oblaci: Mostly Cloudy
Vidljivost: 10 km
Cloud details: Partly Cloudy 1067 m
Mostly Cloudy 2438 m
2020/09/28 11:00 BKPR 281100Z 22014KT 9999 SCT035 BKN080 19/10 Q1013 NOSIG
 
LHPP - Pecs / Pogany, Hungary
Ažurirano: 28/09/2020 12:15
Slaba kiša, Showers, Pretežno oblačno
Slaba kiša, Showers, Pretežno oblačno
 Pravac vetra ZJZ
Vetar: ZJZ 13 km/h
Temperatura: 16°C
Tačka rose: 13°C
Vlažnost: 83%
Pritisak: 1007 hPa
Pregled: Slaba kiša, Showers
Oblaci: Mostly Cloudy
Vidljivost: 10 km
Cloud details: Few Clouds 701 m
Partly Cloudy 701 m
Mostly Cloudy 2530 m
2020/09/28 10:15 LHPP 281015Z 25007KT 9999 -SHRA FEW023 SCT023CB BKN083 16/13 Q1007 RERA
LHUD - Szeged, Hungary
Ažurirano: 04/07/2019 01:45
NOT Current
Vedro
Vedro
 Pravac vetra S
Vetar: S 7 km/h
Temperatura: 18°C
Tačka rose: 13°C
Vlažnost: 73%
Pritisak: 1019 hPa
Pregled: Vedro
Vidljivost: greater than 10 km
2019/07/03 23:45 LHUD 032345Z 35004KT CAVOK 18/13 Q1019
LRTR - Timisoara, Romania
Ažurirano: 28/09/2020 12:30
Few Clouds
Few Clouds
 Pravac vetra JI
Vetar: JI 30 km/h
Temperatura: 20°C
Tačka rose: 12°C
Vlažnost: 60%
Pritisak: 1010 hPa
Oblaci: Few Clouds
Vidljivost: 10 km
Cloud details: Few Clouds 1067 m
Few Clouds 1524 m
2020/09/28 10:30 LRTR 281030Z 14016KT 9999 FEW035 FEW050CB 20/12 Q1010 NOSIG
 
LRCV - Craiova, Romania
Ažurirano: 28/09/2020 12:30
Vedro
Vedro
 Pravac vetra I
Vetar: I 24 km/h
Temperatura: 20°C
Tačka rose: 13°C
Vlažnost: 64%
Pritisak: 1013 hPa
Pregled: Vedro
Vidljivost: greater than 10 km
2020/09/28 10:30 LRCV 281030Z 08013KT CAVOK 20/13 Q1013
LBSF - Sofia, Bulgaria
Ažurirano: 28/09/2020 12:30
Few Clouds
Few Clouds
 Pravac vetra JI
Vetar: JI 20 km/h
Temperatura: 22°C
Tačka rose: 10°C
Vlažnost: 47%
Pritisak: 1014 hPa
Oblaci: Few Clouds
Vidljivost: 10 km
Cloud details: Few Clouds 1981 m
2020/09/28 10:30 LBSF 281030Z 13011KT 9999 FEW065 22/10 Q1014 TEMPO 21016G26KT
LWSK - Skoplje, Makedonija
Ažurirano: 28/09/2020 13:00
Few Clouds
Few Clouds
 Pravac vetra JJI
Vetar: JJI 30 km/h
Temperatura: 25°C
Tačka rose: 14°C
Vlažnost: 51%
Pritisak: 1012 hPa
Oblaci: Few Clouds
Vidljivost: 10 km
Cloud details: Few Clouds 1219 m
2020/09/28 11:00 LWSK 281100Z 15016KT 9999 FEW040 25/14 Q1012 NOSIG
 
LYPG - Podgorica, Crna Gora
Ažurirano: 28/09/2020 12:30
Mostly Cloudy
Mostly Cloudy
 Pravac vetra JI
Vetar: JI 22 km/h
Temperatura: 21°C
Tačka rose: 15°C
Vlažnost: 69%
Pritisak: 1013 hPa
Oblaci: Mostly Cloudy
Vidljivost: 10 km
Cloud details: Partly Cloudy 1036 m
Mostly Cloudy 3048 m
2020/09/28 10:30 LYPG 281030Z 14012KT 110V170 9999 SCT034 BKN100 21/15 Q1013 NOSIG
LQSA - Sarajevo, Bosna i Hercegovina
Ažurirano: 28/09/2020 12:30
Mostly Cloudy
Mostly Cloudy
 Pravac vetra JI
Vetar: JI 30 km/h
Temperatura: 17°C
Tačka rose: 7°C
Vlažnost: 52%
Pritisak: 1009 hPa
Oblaci: Mostly Cloudy
Vidljivost: 10 km
Cloud details: Few Clouds 1219 m
Mostly Cloudy 1676 m
2020/09/28 10:30 LQSA 281030Z 14016KT 120V180 9999 FEW040 BKN055 17/07 Q1009 WS ALL RWY NOSIG
LDOS - Osijek, Hrvatksa
Ažurirano: 28/09/2020 12:30
Vedro
Vedro
 Pravac vetra JJI
Vetar: JJI 28 km/h
Temperatura: 24°C
Tačka rose: 9°C
Vlažnost: 39%
Pritisak: 1006 hPa
Pregled: Vedro
Vidljivost: greater than 10 km
2020/09/28 10:30 LDOS 281030Z 16015KT CAVOK 24/09 Q1006